sensor_id;sensor_type;location;lat;lon;timestamp;temperature;humidity
12370;DHT22;6249;52.128;9.986;2023-02-27T00:01:46;-0.30;99.90
12370;DHT22;6249;52.128;9.986;2023-02-27T00:05:10;-0.30;99.90
12370;DHT22;6249;52.128;9.986;2023-02-27T00:08:31;-0.40;99.90
12370;DHT22;6249;52.128;9.986;2023-02-27T00:11:52;-0.50;99.90
12370;DHT22;6249;52.128;9.986;2023-02-27T00:15:17;-0.50;99.90
12370;DHT22;6249;52.128;9.986;2023-02-27T00:18:38;-0.50;99.90
12370;DHT22;6249;52.128;9.986;2023-02-27T00:22:00;-0.60;99.90
12370;DHT22;6249;52.128;9.986;2023-02-27T00:25:21;-0.50;99.90
12370;DHT22;6249;52.128;9.986;2023-02-27T00:28:44;-0.50;99.90
12370;DHT22;6249;52.128;9.986;2023-02-27T00:32:04;-0.50;99.90
12370;DHT22;6249;52.128;9.986;2023-02-27T00:35:30;-0.50;99.90
12370;DHT22;6249;52.128;9.986;2023-02-27T00:38:53;-0.50;99.90
12370;DHT22;6249;52.128;9.986;2023-02-27T00:42:13;-0.50;99.90
12370;DHT22;6249;52.128;9.986;2023-02-27T00:45:36;-0.50;99.90
12370;DHT22;6249;52.128;9.986;2023-02-27T00:48:57;-0.60;99.90
12370;DHT22;6249;52.128;9.986;2023-02-27T00:52:18;-0.70;99.90
12370;DHT22;6249;52.128;9.986;2023-02-27T00:55:41;-0.80;99.90
12370;DHT22;6249;52.128;9.986;2023-02-27T00:59:02;-1.00;99.90
12370;DHT22;6249;52.128;9.986;2023-02-27T01:02:25;-1.10;99.90
12370;DHT22;6249;52.128;9.986;2023-02-27T01:05:45;-1.10;99.90
12370;DHT22;6249;52.128;9.986;2023-02-27T01:09:06;-1.20;99.90
12370;DHT22;6249;52.128;9.986;2023-02-27T01:12:27;-1.10;99.90
12370;DHT22;6249;52.128;9.986;2023-02-27T01:15:47;-1.10;99.90
12370;DHT22;6249;52.128;9.986;2023-02-27T01:19:08;-1.10;99.90
12370;DHT22;6249;52.128;9.986;2023-02-27T01:22:29;-1.10;99.90
12370;DHT22;6249;52.128;9.986;2023-02-27T01:25:52;-1.20;99.90
12370;DHT22;6249;52.128;9.986;2023-02-27T01:29:13;-1.20;99.90
12370;DHT22;6249;52.128;9.986;2023-02-27T01:32:36;-1.30;99.90
12370;DHT22;6249;52.128;9.986;2023-02-27T01:36:01;-1.30;99.90
12370;DHT22;6249;52.128;9.986;2023-02-27T01:39:22;-1.40;99.90
12370;DHT22;6249;52.128;9.986;2023-02-27T01:42:42;-1.40;99.90
12370;DHT22;6249;52.128;9.986;2023-02-27T01:46:05;-1.50;99.90
12370;DHT22;6249;52.128;9.986;2023-02-27T01:49:33;-1.50;99.90
12370;DHT22;6249;52.128;9.986;2023-02-27T01:52:57;-1.60;99.90
12370;DHT22;6249;52.128;9.986;2023-02-27T01:56:23;-1.60;99.90
12370;DHT22;6249;52.128;9.986;2023-02-27T01:59:44;-1.60;99.90
12370;DHT22;6249;52.128;9.986;2023-02-27T02:03:17;-1.60;99.90
12370;DHT22;6249;52.128;9.986;2023-02-27T02:06:41;-1.60;99.90
12370;DHT22;6249;52.128;9.986;2023-02-27T02:10:04;-1.70;99.90
12370;DHT22;6249;52.128;9.986;2023-02-27T02:13:25;-1.70;99.90
12370;DHT22;6249;52.128;9.986;2023-02-27T02:31:31;-1.80;99.90
12370;DHT22;6249;52.128;9.986;2023-02-27T02:42:23;-1.90;99.90
12370;DHT22;6249;52.128;9.986;2023-02-27T02:46:01;-1.80;99.90
12370;DHT22;6249;52.128;9.986;2023-02-27T02:52:53;-1.80;99.90
12370;DHT22;6249;52.128;9.986;2023-02-27T02:56:26;-1.80;99.90
12370;DHT22;6249;52.128;9.986;2023-02-27T02:59:52;-1.80;99.90
12370;DHT22;6249;52.128;9.986;2023-02-27T03:03:25;-1.80;99.90
12370;DHT22;6249;52.128;9.986;2023-02-27T03:06:52;-1.80;99.90
12370;DHT22;6249;52.128;9.986;2023-02-27T03:13:49;-2.00;99.90
12370;DHT22;6249;52.128;9.986;2023-02-27T03:17:26;-2.00;99.90
12370;DHT22;6249;52.128;9.986;2023-02-27T03:21:04;-2.10;99.90
12370;DHT22;6249;52.128;9.986;2023-02-27T03:24:35;-2.10;99.90
12370;DHT22;6249;52.128;9.986;2023-02-27T03:28:00;-2.20;99.90
12370;DHT22;6249;52.128;9.986;2023-02-27T03:34:49;-2.30;99.90
12370;DHT22;6249;52.128;9.986;2023-02-27T03:38:22;-2.30;99.90
12370;DHT22;6249;52.128;9.986;2023-02-27T03:41:57;-2.30;99.90
12370;DHT22;6249;52.128;9.986;2023-02-27T03:45:44;-2.30;99.90
12370;DHT22;6249;52.128;9.986;2023-02-27T03:49:13;-2.40;99.90
12370;DHT22;6249;52.128;9.986;2023-02-27T03:52:33;-2.50;99.90
12370;DHT22;6249;52.128;9.986;2023-02-27T03:55:57;-2.50;99.90
12370;DHT22;6249;52.128;9.986;2023-02-27T03:59:22;-2.50;99.90
12370;DHT22;6249;52.128;9.986;2023-02-27T04:02:47;-2.50;99.90
12370;DHT22;6249;52.128;9.986;2023-02-27T04:06:10;-2.60;99.90
12370;DHT22;6249;52.128;9.986;2023-02-27T04:17:30;-2.60;99.90
12370;DHT22;6249;52.128;9.986;2023-02-27T04:21:07;-2.60;99.90
12370;DHT22;6249;52.128;9.986;2023-02-27T04:32:28;-2.60;99.90
12370;DHT22;6249;52.128;9.986;2023-02-27T04:35:33;-2.70;99.90
12370;DHT22;6249;52.128;9.986;2023-02-27T04:42:31;-2.70;99.90
12370;DHT22;6249;52.128;9.986;2023-02-27T04:45:54;-2.70;99.90
12370;DHT22;6249;52.128;9.986;2023-02-27T04:49:23;-2.60;99.90
12370;DHT22;6249;52.128;9.986;2023-02-27T04:52:51;-2.70;99.90
12370;DHT22;6249;52.128;9.986;2023-02-27T04:56:24;-2.70;99.90
12370;DHT22;6249;52.128;9.986;2023-02-27T04:59:50;-2.80;99.90
12370;DHT22;6249;52.128;9.986;2023-02-27T05:03:21;-2.70;99.90
12370;DHT22;6249;52.128;9.986;2023-02-27T05:06:47;-2.70;99.90
12370;DHT22;6249;52.128;9.986;2023-02-27T05:10:50;-2.60;99.90
12370;DHT22;6249;52.128;9.986;2023-02-27T05:14:41;-2.60;99.90
12370;DHT22;6249;52.128;9.986;2023-02-27T05:18:12;-2.60;99.90
12370;DHT22;6249;52.128;9.986;2023-02-27T05:21:48;-2.70;99.90
12370;DHT22;6249;52.128;9.986;2023-02-27T05:25:34;-2.70;99.90
12370;DHT22;6249;52.128;9.986;2023-02-27T05:29:15;-2.70;99.90
12370;DHT22;6249;52.128;9.986;2023-02-27T05:32:47;-2.80;99.90
12370;DHT22;6249;52.128;9.986;2023-02-27T05:36:23;-3.00;99.90
12370;DHT22;6249;52.128;9.986;2023-02-27T05:39:45;-3.00;99.90
12370;DHT22;6249;52.128;9.986;2023-02-27T05:43:14;-3.00;99.90
12370;DHT22;6249;52.128;9.986;2023-02-27T05:46:40;-3.10;99.90
12370;DHT22;6249;52.128;9.986;2023-02-27T05:50:12;-3.10;99.90
12370;DHT22;6249;52.128;9.986;2023-02-27T05:53:38;-3.20;99.90
12370;DHT22;6249;52.128;9.986;2023-02-27T05:57:01;-3.10;99.90
12370;DHT22;6249;52.128;9.986;2023-02-27T06:00:32;-3.10;99.90
12370;DHT22;6249;52.128;9.986;2023-02-27T06:03:55;-3.10;99.90
12370;DHT22;6249;52.128;9.986;2023-02-27T06:07:17;-3.10;99.90
12370;DHT22;6249;52.128;9.986;2023-02-27T06:10:40;-3.10;99.90
12370;DHT22;6249;52.128;9.986;2023-02-27T06:14:01;-3.10;99.90
12370;DHT22;6249;52.128;9.986;2023-02-27T06:17:26;-3.10;99.90
12370;DHT22;6249;52.128;9.986;2023-02-27T06:20:47;-3.00;99.90
12370;DHT22;6249;52.128;9.986;2023-02-27T06:24:08;-3.00;99.90
12370;DHT22;6249;52.128;9.986;2023-02-27T06:27:29;-2.80;99.90
12370;DHT22;6249;52.128;9.986;2023-02-27T06:30:54;-2.70;99.90
12370;DHT22;6249;52.128;9.986;2023-02-27T06:34:17;-2.50;99.90
12370;DHT22;6249;52.128;9.986;2023-02-27T06:37:37;-2.30;99.90
12370;DHT22;6249;52.128;9.986;2023-02-27T06:40:58;-2.30;99.90
12370;DHT22;6249;52.128;9.986;2023-02-27T06:44:23;-2.20;99.90
12370;DHT22;6249;52.128;9.986;2023-02-27T06:47:46;-2.20;99.90
12370;DHT22;6249;52.128;9.986;2023-02-27T06:51:07;-2.10;99.90
12370;DHT22;6249;52.128;9.986;2023-02-27T06:54:27;-2.10;99.90
12370;DHT22;6249;52.128;9.986;2023-02-27T06:57:50;-2.20;99.90
12370;DHT22;6249;52.128;9.986;2023-02-27T07:01:13;-2.40;99.90
12370;DHT22;6249;52.128;9.986;2023-02-27T07:04:34;-2.30;99.90
12370;DHT22;6249;52.128;9.986;2023-02-27T07:07:54;-2.30;99.90
12370;DHT22;6249;52.128;9.986;2023-02-27T07:11:15;-2.20;99.90
12370;DHT22;6249;52.128;9.986;2023-02-27T07:14:36;-2.00;99.90
12370;DHT22;6249;52.128;9.986;2023-02-27T07:17:59;-1.90;99.90
12370;DHT22;6249;52.128;9.986;2023-02-27T07:21:19;-1.80;99.90
12370;DHT22;6249;52.128;9.986;2023-02-27T07:24:40;-1.50;99.90
12370;DHT22;6249;52.128;9.986;2023-02-27T07:28:03;-1.40;99.90
12370;DHT22;6249;52.128;9.986;2023-02-27T07:31:24;-1.20;99.90
12370;DHT22;6249;52.128;9.986;2023-02-27T07:34:45;-1.00;99.90
12370;DHT22;6249;52.128;9.986;2023-02-27T07:38:05;-0.90;99.90
12370;DHT22;6249;52.128;9.986;2023-02-27T07:41:26;-0.90;99.90
12370;DHT22;6249;52.128;9.986;2023-02-27T07:44:46;-0.80;99.90
12370;DHT22;6249;52.128;9.986;2023-02-27T07:48:09;-0.80;99.90
12370;DHT22;6249;52.128;9.986;2023-02-27T07:51:30;-0.60;99.90
12370;DHT22;6249;52.128;9.986;2023-02-27T07:54:50;-0.40;99.90
12370;DHT22;6249;52.128;9.986;2023-02-27T07:58:11;-0.20;99.90
12370;DHT22;6249;52.128;9.986;2023-02-27T08:01:32;0.00;99.90
12370;DHT22;6249;52.128;9.986;2023-02-27T08:04:52;0.30;99.90
12370;DHT22;6249;52.128;9.986;2023-02-27T08:08:13;0.60;99.90
12370;DHT22;6249;52.128;9.986;2023-02-27T08:11:34;0.90;99.90
12370;DHT22;6249;52.128;9.986;2023-02-27T08:14:54;1.10;99.90
12370;DHT22;6249;52.128;9.986;2023-02-27T08:18:15;1.30;99.90
12370;DHT22;6249;52.128;9.986;2023-02-27T08:21:37;1.60;99.90
12370;DHT22;6249;52.128;9.986;2023-02-27T08:24:58;1.70;99.90
12370;DHT22;6249;52.128;9.986;2023-02-27T08:28:19;1.90;99.90
12370;DHT22;6249;52.128;9.986;2023-02-27T08:31:40;2.00;99.90
12370;DHT22;6249;52.128;9.986;2023-02-27T08:35:01;2.10;99.90
12370;DHT22;6249;52.128;9.986;2023-02-27T08:38:21;2.30;99.90
12370;DHT22;6249;52.128;9.986;2023-02-27T08:41:42;2.60;99.90
12370;DHT22;6249;52.128;9.986;2023-02-27T08:45:03;2.80;99.90
12370;DHT22;6249;52.128;9.986;2023-02-27T08:48:24;3.10;99.90
12370;DHT22;6249;52.128;9.986;2023-02-27T08:51:45;3.20;99.90
12370;DHT22;6249;52.128;9.986;2023-02-27T08:55:08;2.90;99.90
12370;DHT22;6249;52.128;9.986;2023-02-27T08:58:29;2.90;99.90
12370;DHT22;6249;52.128;9.986;2023-02-27T09:01:54;3.10;99.90
12370;DHT22;6249;52.128;9.986;2023-02-27T09:05:15;3.30;99.90
12370;DHT22;6249;52.128;9.986;2023-02-27T09:08:38;3.30;99.90
12370;DHT22;6249;52.128;9.986;2023-02-27T09:11:59;3.60;99.90
12370;DHT22;6249;52.128;9.986;2023-02-27T09:15:22;3.70;99.90
12370;DHT22;6249;52.128;9.986;2023-02-27T09:18:43;3.70;99.90
12370;DHT22;6249;52.128;9.986;2023-02-27T09:22:04;3.60;99.90
12370;DHT22;6249;52.128;9.986;2023-02-27T09:25:25;3.80;99.90
12370;DHT22;6249;52.128;9.986;2023-02-27T09:28:46;3.80;99.90
12370;DHT22;6249;52.128;9.986;2023-02-27T09:32:07;3.90;99.90
12370;DHT22;6249;52.128;9.986;2023-02-27T09:35:30;3.80;99.90
12370;DHT22;6249;52.128;9.986;2023-02-27T09:38:51;3.80;99.90
12370;DHT22;6249;52.128;9.986;2023-02-27T09:42:21;4.10;99.90
12370;DHT22;6249;52.128;9.986;2023-02-27T09:45:43;4.50;99.90
12370;DHT22;6249;52.128;9.986;2023-02-27T09:49:14;4.70;99.90
12370;DHT22;6249;52.128;9.986;2023-02-27T09:52:38;5.30;99.90
12370;DHT22;6249;52.128;9.986;2023-02-27T09:56:06;5.30;99.90
12370;DHT22;6249;52.128;9.986;2023-02-27T09:59:38;5.30;99.90
12370;DHT22;6249;52.128;9.986;2023-02-27T10:10:59;5.20;99.90
12370;DHT22;6249;52.128;9.986;2023-02-27T10:14:52;5.50;99.90
12370;DHT22;6249;52.128;9.986;2023-02-27T10:18:34;6.00;99.90
12370;DHT22;6249;52.128;9.986;2023-02-27T10:22:04;6.50;99.90
12370;DHT22;6249;52.128;9.986;2023-02-27T10:25:26;6.90;99.90
12370;DHT22;6249;52.128;9.986;2023-02-27T10:28:48;7.10;99.90
12370;DHT22;6249;52.128;9.986;2023-02-27T10:32:19;7.80;99.90
12370;DHT22;6249;52.128;9.986;2023-02-27T10:35:44;8.20;99.50
12370;DHT22;6249;52.128;9.986;2023-02-27T10:39:07;9.00;97.80
12370;DHT22;6249;52.128;9.986;2023-02-27T10:42:35;9.90;97.40
12370;DHT22;6249;52.128;9.986;2023-02-27T10:46:01;11.20;93.10
12370;DHT22;6249;52.128;9.986;2023-02-27T10:49:22;12.20;90.40
12370;DHT22;6249;52.128;9.986;2023-02-27T10:52:57;12.30;86.40
12370;DHT22;6249;52.128;9.986;2023-02-27T10:56:26;11.50;88.10
12370;DHT22;6249;52.128;9.986;2023-02-27T11:00:01;11.90;90.10
12370;DHT22;6249;52.128;9.986;2023-02-27T11:03:29;11.40;89.70
12370;DHT22;6249;52.128;9.986;2023-02-27T11:06:53;10.50;91.60
12370;DHT22;6249;52.128;9.986;2023-02-27T11:13:40;11.00;90.90
12370;DHT22;6249;52.128;9.986;2023-02-27T11:17:04;10.70;91.60
12370;DHT22;6249;52.128;9.986;2023-02-27T11:27:20;13.30;86.90
12370;DHT22;6249;52.128;9.986;2023-02-27T11:30:42;14.20;84.00
12370;DHT22;6249;52.128;9.986;2023-02-27T11:34:06;15.10;78.30
12370;DHT22;6249;52.128;9.986;2023-02-27T11:37:34;14.80;77.10
12370;DHT22;6249;52.128;9.986;2023-02-27T11:41:01;15.00;78.20
12370;DHT22;6249;52.128;9.986;2023-02-27T11:44:28;16.00;76.20
12370;DHT22;6249;52.128;9.986;2023-02-27T11:47:55;16.90;72.30
12370;DHT22;6249;52.128;9.986;2023-02-27T11:58:21;17.50;66.10
12370;DHT22;6249;52.128;9.986;2023-02-27T12:05:38;16.30;65.60
12370;DHT22;6249;52.128;9.986;2023-02-27T12:09:11;16.90;65.90
12370;DHT22;6249;52.128;9.986;2023-02-27T12:20:07;15.00;69.30
12370;DHT22;6249;52.128;9.986;2023-02-27T12:27:47;13.90;68.20
12370;DHT22;6249;52.128;9.986;2023-02-27T12:34:48;12.20;74.60
12370;DHT22;6249;52.128;9.986;2023-02-27T12:38:22;11.40;76.70
12370;DHT22;6249;52.128;9.986;2023-02-27T12:46:00;12.40;79.10
12370;DHT22;6249;52.128;9.986;2023-02-27T12:49:41;13.90;75.20
12370;DHT22;6249;52.128;9.986;2023-02-27T13:00:32;17.20;63.20
12370;DHT22;6249;52.128;9.986;2023-02-27T13:04:02;18.00;57.90
12370;DHT22;6249;52.128;9.986;2023-02-27T13:07:57;18.20;55.30
12370;DHT22;6249;52.128;9.986;2023-02-27T13:15:27;18.80;55.00
12370;DHT22;6249;52.128;9.986;2023-02-27T13:19:04;17.40;55.50
12370;DHT22;6249;52.128;9.986;2023-02-27T13:22:40;16.90;56.50
12370;DHT22;6249;52.128;9.986;2023-02-27T13:26:09;16.20;58.80
12370;DHT22;6249;52.128;9.986;2023-02-27T13:29:39;16.10;58.20
12370;DHT22;6249;52.128;9.986;2023-02-27T13:33:20;14.80;58.30
12370;DHT22;6249;52.128;9.986;2023-02-27T13:36:49;13.90;61.50
12370;DHT22;6249;52.128;9.986;2023-02-27T13:40:38;13.40;64.10
12370;DHT22;6249;52.128;9.986;2023-02-27T13:47:39;16.50;59.50
12370;DHT22;6249;52.128;9.986;2023-02-27T13:51:00;17.90;55.40
12370;DHT22;6249;52.128;9.986;2023-02-27T13:54:24;17.80;53.70
12370;DHT22;6249;52.128;9.986;2023-02-27T13:57:48;16.10;55.90
12370;DHT22;6249;52.128;9.986;2023-02-27T14:01:21;15.20;59.50
12370;DHT22;6249;52.128;9.986;2023-02-27T14:04:49;14.60;61.70
12370;DHT22;6249;52.128;9.986;2023-02-27T14:11:32;12.90;67.20
12370;DHT22;6249;52.128;9.986;2023-02-27T14:15:03;12.30;71.30
12370;DHT22;6249;52.128;9.986;2023-02-27T14:18:56;11.70;73.10
12370;DHT22;6249;52.128;9.986;2023-02-27T14:29:21;10.70;79.40
12370;DHT22;6249;52.128;9.986;2023-02-27T14:32:43;10.30;79.80
12370;DHT22;6249;52.128;9.986;2023-02-27T14:39:39;10.20;81.20
12370;DHT22;6249;52.128;9.986;2023-02-27T14:43:20;10.20;81.20
12370;DHT22;6249;52.128;9.986;2023-02-27T14:46:43;10.00;81.20
12370;DHT22;6249;52.128;9.986;2023-02-27T14:50:21;9.90;82.70
12370;DHT22;6249;52.128;9.986;2023-02-27T14:53:42;9.80;84.10
12370;DHT22;6249;52.128;9.986;2023-02-27T14:57:05;9.80;85.50
12370;DHT22;6249;52.128;9.986;2023-02-27T15:00:40;9.60;86.90
12370;DHT22;6249;52.128;9.986;2023-02-27T15:04:06;9.60;86.70
12370;DHT22;6249;52.128;9.986;2023-02-27T15:07:30;9.40;87.60
12370;DHT22;6249;52.128;9.986;2023-02-27T15:10:52;9.30;87.10
12370;DHT22;6249;52.128;9.986;2023-02-27T15:14:23;9.20;87.80
12370;DHT22;6249;52.128;9.986;2023-02-27T15:17:50;9.10;90.00
12370;DHT22;6249;52.128;9.986;2023-02-27T15:21:13;9.00;90.30
12370;DHT22;6249;52.128;9.986;2023-02-27T15:24:35;8.90;90.30
12370;DHT22;6249;52.128;9.986;2023-02-27T15:28:04;9.00;90.20
12370;DHT22;6249;52.128;9.986;2023-02-27T15:31:26;9.00;90.10
12370;DHT22;6249;52.128;9.986;2023-02-27T15:34:50;9.30;90.20
12370;DHT22;6249;52.128;9.986;2023-02-27T15:38:40;9.70;90.10
12370;DHT22;6249;52.128;9.986;2023-02-27T15:42:02;9.40;88.50
12370;DHT22;6249;52.128;9.986;2023-02-27T15:45:32;9.30;88.70
12370;DHT22;6249;52.128;9.986;2023-02-27T15:48:54;9.40;87.80
12370;DHT22;6249;52.128;9.986;2023-02-27T15:52:24;9.10;89.10
12370;DHT22;6249;52.128;9.986;2023-02-27T15:55:56;9.50;90.10
12370;DHT22;6249;52.128;9.986;2023-02-27T15:59:20;10.10;87.20
12370;DHT22;6249;52.128;9.986;2023-02-27T16:02:50;10.10;85.50
12370;DHT22;6249;52.128;9.986;2023-02-27T16:06:17;11.20;85.90
12370;DHT22;6249;52.128;9.986;2023-02-27T16:09:38;12.50;82.40
12370;DHT22;6249;52.128;9.986;2023-02-27T16:13:39;12.80;79.00
12370;DHT22;6249;52.128;9.986;2023-02-27T16:16:59;12.90;78.60
12370;DHT22;6249;52.128;9.986;2023-02-27T16:20:47;12.80;78.60
12370;DHT22;6249;52.128;9.986;2023-02-27T16:24:20;12.10;79.50
12370;DHT22;6249;52.128;9.986;2023-02-27T16:27:47;11.10;82.20
12370;DHT22;6249;52.128;9.986;2023-02-27T16:31:33;10.10;83.30
12370;DHT22;6249;52.128;9.986;2023-02-27T16:35:18;9.50;87.40
12370;DHT22;6249;52.128;9.986;2023-02-27T16:38:42;8.80;90.00
12370;DHT22;6249;52.128;9.986;2023-02-27T16:42:02;8.50;91.80
12370;DHT22;6249;52.128;9.986;2023-02-27T16:45:27;8.20;91.90
12370;DHT22;6249;52.128;9.986;2023-02-27T16:48:52;7.90;92.90
12370;DHT22;6249;52.128;9.986;2023-02-27T16:52:14;7.50;93.80
12370;DHT22;6249;52.128;9.986;2023-02-27T16:55:38;7.30;94.40
12370;DHT22;6249;52.128;9.986;2023-02-27T16:59:00;7.20;94.70
12370;DHT22;6249;52.128;9.986;2023-02-27T17:02:21;7.30;94.80
12370;DHT22;6249;52.128;9.986;2023-02-27T17:05:42;7.20;94.80
12370;DHT22;6249;52.128;9.986;2023-02-27T17:09:02;7.00;95.00
12370;DHT22;6249;52.128;9.986;2023-02-27T17:12:24;6.90;95.10
12370;DHT22;6249;52.128;9.986;2023-02-27T17:15:49;7.00;95.20
12370;DHT22;6249;52.128;9.986;2023-02-27T17:19:10;6.90;95.30
12370;DHT22;6249;52.128;9.986;2023-02-27T17:22:36;6.70;95.50
12370;DHT22;6249;52.128;9.986;2023-02-27T17:25:57;6.50;95.80
12370;DHT22;6249;52.128;9.986;2023-02-27T17:29:18;6.50;96.10
12370;DHT22;6249;52.128;9.986;2023-02-27T17:32:41;6.50;96.30
12370;DHT22;6249;52.128;9.986;2023-02-27T17:36:06;6.30;97.10
12370;DHT22;6249;52.128;9.986;2023-02-27T17:39:27;6.00;98.00
12370;DHT22;6249;52.128;9.986;2023-02-27T17:42:47;5.80;99.00
12370;DHT22;6249;52.128;9.986;2023-02-27T17:46:09;5.50;99.90
12370;DHT22;6249;52.128;9.986;2023-02-27T17:49:32;5.40;99.90
12370;DHT22;6249;52.128;9.986;2023-02-27T17:52:55;5.40;99.90
12370;DHT22;6249;52.128;9.986;2023-02-27T17:56:21;5.40;99.90
12370;DHT22;6249;52.128;9.986;2023-02-27T17:59:42;5.40;99.90
12370;DHT22;6249;52.128;9.986;2023-02-27T18:03:02;5.60;99.50
12370;DHT22;6249;52.128;9.986;2023-02-27T18:06:25;5.50;99.50
12370;DHT22;6249;52.128;9.986;2023-02-27T18:09:48;5.40;99.30
12370;DHT22;6249;52.128;9.986;2023-02-27T18:13:09;5.50;98.90
12370;DHT22;6249;52.128;9.986;2023-02-27T18:16:30;5.50;98.90
12370;DHT22;6249;52.128;9.986;2023-02-27T18:19:54;5.80;99.20
12370;DHT22;6249;52.128;9.986;2023-02-27T18:23:15;5.50;99.20
12370;DHT22;6249;52.128;9.986;2023-02-27T18:26:35;5.60;99.30
12370;DHT22;6249;52.128;9.986;2023-02-27T18:29:58;5.60;99.20
12370;DHT22;6249;52.128;9.986;2023-02-27T18:33:21;5.50;99.10
12370;DHT22;6249;52.128;9.986;2023-02-27T18:36:42;5.50;98.70
12370;DHT22;6249;52.128;9.986;2023-02-27T18:40:05;5.50;97.20
12370;DHT22;6249;52.128;9.986;2023-02-27T18:43:30;5.50;96.80
12370;DHT22;6249;52.128;9.986;2023-02-27T18:46:52;5.40;96.50
12370;DHT22;6249;52.128;9.986;2023-02-27T18:50:15;5.30;95.10
12370;DHT22;6249;52.128;9.986;2023-02-27T18:53:37;5.20;95.20
12370;DHT22;6249;52.128;9.986;2023-02-27T18:57:00;5.10;96.00
12370;DHT22;6249;52.128;9.986;2023-02-27T19:00:26;5.00;94.00
12370;DHT22;6249;52.128;9.986;2023-02-27T19:03:49;4.90;93.60
12370;DHT22;6249;52.128;9.986;2023-02-27T19:07:17;4.90;94.50
12370;DHT22;6249;52.128;9.986;2023-02-27T19:10:40;4.80;94.50
12370;DHT22;6249;52.128;9.986;2023-02-27T19:14:05;4.80;94.90
12370;DHT22;6249;52.128;9.986;2023-02-27T19:17:27;4.80;94.60
12370;DHT22;6249;52.128;9.986;2023-02-27T19:20:47;4.90;94.70
12370;DHT22;6249;52.128;9.986;2023-02-27T19:24:11;4.80;94.60
12370;DHT22;6249;52.128;9.986;2023-02-27T19:27:31;4.90;94.60
12370;DHT22;6249;52.128;9.986;2023-02-27T19:30:52;4.80;94.40
12370;DHT22;6249;52.128;9.986;2023-02-27T19:34:13;4.80;94.40
12370;DHT22;6249;52.128;9.986;2023-02-27T19:37:34;4.80;94.60
12370;DHT22;6249;52.128;9.986;2023-02-27T19:41:01;4.80;95.40
12370;DHT22;6249;52.128;9.986;2023-02-27T19:44:25;4.60;95.70
12370;DHT22;6249;52.128;9.986;2023-02-27T19:47:45;4.50;95.90
12370;DHT22;6249;52.128;9.986;2023-02-27T19:51:10;4.50;96.20
12370;DHT22;6249;52.128;9.986;2023-02-27T19:54:31;4.50;96.50
12370;DHT22;6249;52.128;9.986;2023-02-27T19:57:54;4.40;96.90
12370;DHT22;6249;52.128;9.986;2023-02-27T20:01:22;4.40;97.20
12370;DHT22;6249;52.128;9.986;2023-02-27T20:04:43;4.30;97.70
12370;DHT22;6249;52.128;9.986;2023-02-27T20:08:04;4.20;98.40
12370;DHT22;6249;52.128;9.986;2023-02-27T20:11:31;4.00;99.20
12370;DHT22;6249;52.128;9.986;2023-02-27T20:14:57;3.90;99.90
12370;DHT22;6249;52.128;9.986;2023-02-27T20:18:19;3.90;99.90
12370;DHT22;6249;52.128;9.986;2023-02-27T20:21:43;3.90;99.90
12370;DHT22;6249;52.128;9.986;2023-02-27T20:25:07;3.80;99.90
12370;DHT22;6249;52.128;9.986;2023-02-27T20:28:30;3.70;99.90
12370;DHT22;6249;52.128;9.986;2023-02-27T20:31:54;3.50;99.90
12370;DHT22;6249;52.128;9.986;2023-02-27T20:35:16;3.50;99.90
12370;DHT22;6249;52.128;9.986;2023-02-27T20:38:40;3.40;99.90
12370;DHT22;6249;52.128;9.986;2023-02-27T20:42:03;3.40;99.90
12370;DHT22;6249;52.128;9.986;2023-02-27T20:45:25;3.30;99.90
12370;DHT22;6249;52.128;9.986;2023-02-27T20:48:50;3.30;99.90
12370;DHT22;6249;52.128;9.986;2023-02-27T20:52:12;3.30;99.90
12370;DHT22;6249;52.128;9.986;2023-02-27T20:55:35;3.20;99.90
12370;DHT22;6249;52.128;9.986;2023-02-27T20:59:03;3.20;99.90
12370;DHT22;6249;52.128;9.986;2023-02-27T21:02:24;3.10;99.90
12370;DHT22;6249;52.128;9.986;2023-02-27T21:05:46;3.10;99.90
12370;DHT22;6249;52.128;9.986;2023-02-27T21:09:07;3.10;99.90
12370;DHT22;6249;52.128;9.986;2023-02-27T21:12:27;3.00;99.90
12370;DHT22;6249;52.128;9.986;2023-02-27T21:15:48;3.00;99.90
12370;DHT22;6249;52.128;9.986;2023-02-27T21:19:11;2.90;99.90
12370;DHT22;6249;52.128;9.986;2023-02-27T21:22:34;2.80;99.90
12370;DHT22;6249;52.128;9.986;2023-02-27T21:25:55;2.70;99.90
12370;DHT22;6249;52.128;9.986;2023-02-27T21:29:19;2.60;99.90
12370;DHT22;6249;52.128;9.986;2023-02-27T21:32:40;2.50;99.90
12370;DHT22;6249;52.128;9.986;2023-02-27T21:36:01;2.50;99.90
12370;DHT22;6249;52.128;9.986;2023-02-27T21:39:27;2.40;99.90
12370;DHT22;6249;52.128;9.986;2023-02-27T21:42:48;2.40;99.90
12370;DHT22;6249;52.128;9.986;2023-02-27T21:46:11;2.40;99.90
12370;DHT22;6249;52.128;9.986;2023-02-27T21:49:35;2.40;99.90
12370;DHT22;6249;52.128;9.986;2023-02-27T21:52:58;2.50;99.90
12370;DHT22;6249;52.128;9.986;2023-02-27T21:56:19;2.50;99.90
12370;DHT22;6249;52.128;9.986;2023-02-27T21:59:39;2.50;99.90
12370;DHT22;6249;52.128;9.986;2023-02-27T22:03:01;2.50;99.90
12370;DHT22;6249;52.128;9.986;2023-02-27T22:06:26;2.60;99.90
12370;DHT22;6249;52.128;9.986;2023-02-27T22:09:53;2.60;99.90
12370;DHT22;6249;52.128;9.986;2023-02-27T22:13:14;2.60;99.90
12370;DHT22;6249;52.128;9.986;2023-02-27T22:16:35;2.70;99.90
12370;DHT22;6249;52.128;9.986;2023-02-27T22:19:56;2.70;99.90
12370;DHT22;6249;52.128;9.986;2023-02-27T22:23:16;2.70;99.90
12370;DHT22;6249;52.128;9.986;2023-02-27T22:26:37;2.70;99.90
12370;DHT22;6249;52.128;9.986;2023-02-27T22:29:58;2.60;99.90
12370;DHT22;6249;52.128;9.986;2023-02-27T22:33:21;2.60;99.90
12370;DHT22;6249;52.128;9.986;2023-02-27T22:36:41;2.40;99.90
12370;DHT22;6249;52.128;9.986;2023-02-27T22:40:02;2.20;99.90
12370;DHT22;6249;52.128;9.986;2023-02-27T22:43:23;2.10;99.90
12370;DHT22;6249;52.128;9.986;2023-02-27T22:46:46;2.00;99.90
12370;DHT22;6249;52.128;9.986;2023-02-27T22:50:07;2.00;99.90
12370;DHT22;6249;52.128;9.986;2023-02-27T22:53:35;2.00;99.90
12370;DHT22;6249;52.128;9.986;2023-02-27T22:57:01;2.00;99.90
12370;DHT22;6249;52.128;9.986;2023-02-27T23:00:23;1.90;99.90
12370;DHT22;6249;52.128;9.986;2023-02-27T23:03:45;2.00;99.90
12370;DHT22;6249;52.128;9.986;2023-02-27T23:07:06;2.00;99.90
12370;DHT22;6249;52.128;9.986;2023-02-27T23:10:27;2.00;99.90
12370;DHT22;6249;52.128;9.986;2023-02-27T23:13:48;2.10;99.90
12370;DHT22;6249;52.128;9.986;2023-02-27T23:17:13;2.10;99.90
12370;DHT22;6249;52.128;9.986;2023-02-27T23:20:37;2.10;99.90
12370;DHT22;6249;52.128;9.986;2023-02-27T23:23:58;2.00;99.90
12370;DHT22;6249;52.128;9.986;2023-02-27T23:27:22;1.90;99.90
12370;DHT22;6249;52.128;9.986;2023-02-27T23:30:44;2.00;99.90
12370;DHT22;6249;52.128;9.986;2023-02-27T23:34:07;2.10;99.90
12370;DHT22;6249;52.128;9.986;2023-02-27T23:37:28;2.10;99.90
12370;DHT22;6249;52.128;9.986;2023-02-27T23:40:49;2.10;99.90
12370;DHT22;6249;52.128;9.986;2023-02-27T23:44:09;2.20;99.90
12370;DHT22;6249;52.128;9.986;2023-02-27T23:47:34;2.20;99.90
12370;DHT22;6249;52.128;9.986;2023-02-27T23:51:02;2.30;99.90
12370;DHT22;6249;52.128;9.986;2023-02-27T23:54:23;2.30;99.90
12370;DHT22;6249;52.128;9.986;2023-02-27T23:57:44;2.30;99.90
